Time;durP1;ratioP1;P1;durP2;ratioP2;P2;SDS_P1;SDS_P2;PMS_P1;PMS_P2;Temp;Humidity;BMP_temperature;BMP_pressure;BME280_temperature;BME280_humidity;BME280_pressure;Samples;Min_cycle;Max_cycle;Signal;HPM_P1;HPM_P2
2022/08/24 00:00:48;;;;;;;6.97;4.43;;;;;;;;;;5028551;28;20209;-70
2022/08/24 00:03:18;;;;;;;4.73;4.27;;;;;;;;;;5064904;28;20241;-70
2022/08/24 00:05:52;;;;;;;6.20;4.50;;;;;;;;;;5064365;28;20210;-70
2022/08/24 00:08:20;;;;;;;6.70;5.07;;;;;;;;;;5064535;28;20201;-70
2022/08/24 00:10:55;;;;;;;6.27;5.53;;;;;;;;;;5067620;28;20380;-70
2022/08/24 00:13:25;;;;;;;6.10;5.07;;;;;;;;;;5067221;28;20190;-70
2022/08/24 00:16:01;;;;;;;6.07;5.50;;;;;;;;;;5054311;28;20212;-70
2022/08/24 00:18:30;;;;;;;7.03;5.57;;;;;;;;;;5054495;28;20730;-70
2022/08/24 00:21:01;;;;;;;7.73;5.87;;;;;;;;;;5066454;28;20766;-70
2022/08/24 00:23:32;;;;;;;6.40;5.63;;;;;;;;;;5066694;28;20201;-70
2022/08/24 00:26:05;;;;;;;10.53;6.43;;;;;;;;;;5058654;28;20260;-70
2022/08/24 00:28:41;;;;;;;7.00;5.87;;;;;;;;;;5049003;28;20812;-69
2022/08/24 00:31:16;;;;;;;6.30;5.37;;;;;;;;;;5063134;28;20214;-70
2022/08/24 00:33:46;;;;;;;6.43;5.07;;;;;;;;;;5058583;28;20200;-69
2022/08/24 00:36:21;;;;;;;6.43;5.63;;;;;;;;;;5043047;28;20201;-69
2022/08/24 00:38:53;;;;;;;7.87;5.13;;;;;;;;;;5032912;28;20588;-69
2022/08/24 00:41:24;;;;;;;5.47;4.93;;;;;;;;;;5048354;28;20205;-69
2022/08/24 00:44:01;;;;;;;5.80;5.20;;;;;;;;;;5047644;28;20195;-70
2022/08/24 00:46:51;;;;;;;5.47;4.93;;;;;;;;;;5048964;28;20317;-70
2022/08/24 00:49:40;;;;;;;5.93;4.97;;;;;;;;;;5062273;28;20218;-70
2022/08/24 00:52:41;;;;;;;8.73;5.10;;;;;;;;;;5063696;28;20287;-70
2022/08/24 00:55:16;;;;;;;6.83;5.00;;;;;;;;;;5055560;28;20217;-70
2022/08/24 00:57:48;;;;;;;5.63;4.83;;;;;;;;;;5052634;28;20633;-70
2022/08/24 01:00:22;;;;;;;7.20;5.43;;;;;;;;;;5043610;28;20194;-69
2022/08/24 01:02:58;;;;;;;7.10;5.37;;;;;;;;;;5046795;28;20230;-70
2022/08/24 01:05:27;;;;;;;8.63;4.87;;;;;;;;;;5043355;28;20214;-69
2022/08/24 01:07:56;;;;;;;5.10;4.70;;;;;;;;;;5066999;28;20232;-69
2022/08/24 01:10:35;;;;;;;7.20;5.00;;;;;;;;;;5066506;28;20224;-69
2022/08/24 01:13:07;;;;;;;7.23;5.13;;;;;;;;;;5068903;28;20189;-69
2022/08/24 01:15:39;;;;;;;6.53;5.07;;;;;;;;;;5070731;28;20213;-69
2022/08/24 01:21:21;;;;;;;7.13;5.33;;;;;;;;;;5050202;28;20643;-69
2022/08/24 01:24:16;;;;;;;5.33;4.83;;;;;;;;;;5065972;28;20190;-69
2022/08/24 01:26:51;;;;;;;7.27;4.90;;;;;;;;;;5061632;28;20218;-69
2022/08/24 01:29:23;;;;;;;8.33;5.83;;;;;;;;;;5058942;28;20205;-70
2022/08/24 01:31:52;;;;;;;7.43;5.70;;;;;;;;;;5068286;28;20217;-70
2022/08/24 01:34:25;;;;;;;6.43;5.67;;;;;;;;;;5051456;28;20194;-70
2022/08/24 01:36:58;;;;;;;7.73;5.80;;;;;;;;;;5051033;28;20194;-70
2022/08/24 01:39:49;;;;;;;6.77;5.90;;;;;;;;;;5052577;28;20190;-70
2022/08/24 01:42:39;;;;;;;6.57;5.97;;;;;;;;;;5063870;28;20904;-70
2022/08/24 01:45:08;;;;;;;8.27;6.07;;;;;;;;;;5039431;28;20209;-70
2022/08/24 01:47:42;;;;;;;6.90;6.30;;;;;;;;;;5032002;28;20197;-69
2022/08/24 01:50:11;;;;;;;7.33;6.17;;;;;;;;;;5067596;28;20638;-70
2022/08/24 01:52:43;;;;;;;7.10;6.40;;;;;;;;;;5047516;28;20631;-69
2022/08/24 01:55:35;;;;;;;6.57;5.90;;;;;;;;;;5059884;28;20198;-70
2022/08/24 01:58:06;;;;;;;7.13;6.53;;;;;;;;;;5068624;28;20201;-69
2022/08/24 02:00:37;;;;;;;8.37;7.20;;;;;;;;;;5044820;28;20646;-70
2022/08/24 02:03:08;;;;;;;6.90;6.30;;;;;;;;;;5066815;28;20233;-69
2022/08/24 02:05:42;;;;;;;8.17;7.37;;;;;;;;;;5061038;28;20205;-69
2022/08/24 02:08:18;;;;;;;8.03;7.20;;;;;;;;;;5063441;28;20194;-69
2022/08/24 02:10:50;;;;;;;8.77;7.67;;;;;;;;;;5066909;28;20225;-69
2022/08/24 02:13:23;;;;;;;8.83;7.87;;;;;;;;;;5063721;28;20202;-69
2022/08/24 02:15:54;;;;;;;9.90;7.40;;;;;;;;;;5065521;28;20558;-70
2022/08/24 02:18:24;;;;;;;9.40;8.60;;;;;;;;;;5060749;28;20898;-69
2022/08/24 02:20:56;;;;;;;8.97;8.10;;;;;;;;;;5058981;28;20611;-69
2022/08/24 02:23:31;;;;;;;8.83;7.93;;;;;;;;;;5065237;28;20208;-69
2022/08/24 02:26:04;;;;;;;8.93;8.03;;;;;;;;;;5066934;28;20197;-69
2022/08/24 02:28:32;;;;;;;9.23;8.37;;;;;;;;;;5055738;28;20209;-69
2022/08/24 02:31:05;;;;;;;9.40;8.10;;;;;;;;;;5064610;28;20217;-70
2022/08/24 02:33:38;;;;;;;8.90;8.10;;;;;;;;;;5067204;28;20201;-69
2022/08/24 02:36:08;;;;;;;9.57;8.43;;;;;;;;;;5045536;28;20194;-69
2022/08/24 02:38:56;;;;;;;9.13;8.20;;;;;;;;;;5038745;28;20190;-69
2022/08/24 02:41:29;;;;;;;9.20;8.30;;;;;;;;;;5066104;28;20631;-69
2022/08/24 02:43:59;;;;;;;9.37;8.40;;;;;;;;;;5066953;28;20209;-69
2022/08/24 02:46:31;;;;;;;8.90;7.93;;;;;;;;;;5056347;28;20641;-69
2022/08/24 02:49:24;;;;;;;9.50;8.63;;;;;;;;;;5058630;28;20584;-69
2022/08/24 02:51:54;;;;;;;9.27;8.43;;;;;;;;;;5060386;28;20220;-70
2022/08/24 02:54:25;;;;;;;9.43;8.53;;;;;;;;;;5055816;28;20221;-70
2022/08/24 02:56:54;;;;;;;8.97;8.07;;;;;;;;;;5059435;28;20197;-69
2022/08/24 02:59:25;;;;;;;8.27;7.43;;;;;;;;;;5044034;28;20897;-69
2022/08/24 03:01:54;;;;;;;7.37;6.77;;;;;;;;;;5040283;28;20634;-69
2022/08/24 03:04:25;;;;;;;7.50;6.70;;;;;;;;;;5023338;28;20332;-69
2022/08/24 03:06:58;;;;;;;8.07;6.97;;;;;;;;;;5049182;28;20202;-70
2022/08/24 03:09:30;;;;;;;7.93;7.00;;;;;;;;;;5061736;28;20202;-70
2022/08/24 03:12:02;;;;;;;8.13;7.23;;;;;;;;;;5046370;28;20210;-70
2022/08/24 03:14:34;;;;;;;6.60;6.00;;;;;;;;;;5043051;28;20218;-70
2022/08/24 03:17:08;;;;;;;7.20;6.57;;;;;;;;;;5030759;28;20206;-69
2022/08/24 03:20:13;;;;;;;7.20;6.50;;;;;;;;;;5056148;28;20288;-70
2022/08/24 03:22:42;;;;;;;7.50;6.80;;;;;;;;;;5026558;28;20207;-68
2022/08/24 03:25:26;;;;;;;7.37;6.67;;;;;;;;;;5044631;28;20190;-69
2022/08/24 03:28:01;;;;;;;8.13;6.50;;;;;;;;;;5046360;28;20202;-69
2022/08/24 03:30:43;;;;;;;7.90;7.03;;;;;;;;;;5038566;28;20217;-69
2022/08/24 03:33:16;;;;;;;7.33;6.60;;;;;;;;;;5047312;28;20620;-69
2022/08/24 03:35:56;;;;;;;7.50;6.80;;;;;;;;;;5047002;28;20597;-69
2022/08/24 03:38:28;;;;;;;7.07;6.43;;;;;;;;;;5031078;28;20237;-69
2022/08/24 03:41:01;;;;;;;7.97;7.17;;;;;;;;;;5043098;28;20225;-70
2022/08/24 03:43:47;;;;;;;7.47;6.77;;;;;;;;;;5050475;28;20276;-69
2022/08/24 03:46:26;;;;;;;7.77;7.17;;;;;;;;;;5047344;28;20260;-69
2022/08/24 03:49:04;;;;;;;7.57;6.87;;;;;;;;;;5046923;28;20199;-69
2022/08/24 03:51:38;;;;;;;7.40;6.70;;;;;;;;;;5046621;28;20234;-69
2022/08/24 03:54:10;;;;;;;7.43;6.67;;;;;;;;;;5026892;28;20214;-69
2022/08/24 03:56:48;;;;;;;7.80;6.50;;;;;;;;;;5046461;28;20252;-70
2022/08/24 03:59:20;;;;;;;7.37;6.67;;;;;;;;;;5030515;28;20609;-69
2022/08/24 04:01:49;;;;;;;7.70;7.00;;;;;;;;;;5047955;28;20246;-70
2022/08/24 04:04:24;;;;;;;8.53;6.60;;;;;;;;;;5033660;28;20203;-70
2022/08/24 04:06:53;;;;;;;6.87;6.17;;;;;;;;;;5039918;28;20206;-70
2022/08/24 04:09:26;;;;;;;6.80;6.10;;;;;;;;;;5037617;28;20183;-70
2022/08/24 04:11:56;;;;;;;7.00;6.40;;;;;;;;;;5042252;28;20210;-70
2022/08/24 04:14:28;;;;;;;7.13;6.07;;;;;;;;;;5016625;28;20195;-70
2022/08/24 04:16:56;;;;;;;7.33;6.60;;;;;;;;;;5037468;28;20210;-70
2022/08/24 04:19:29;;;;;;;6.57;5.93;;;;;;;;;;5035386;28;20641;-70
2022/08/24 04:21:59;;;;;;;7.50;6.80;;;;;;;;;;5050130;28;20190;-70
2022/08/24 04:24:33;;;;;;;7.30;6.60;;;;;;;;;;5025841;28;20645;-70
2022/08/24 04:27:05;;;;;;;7.57;6.80;;;;;;;;;;5042904;28;20199;-70
2022/08/24 04:29:35;;;;;;;7.43;6.73;;;;;;;;;;5037353;28;20206;-70
2022/08/24 04:32:08;;;;;;;7.97;7.27;;;;;;;;;;5060202;28;20217;-70
2022/08/24 04:34:44;;;;;;;9.10;7.10;;;;;;;;;;5049070;28;20186;-69
2022/08/24 04:37:16;;;;;;;8.20;7.50;;;;;;;;;;5034638;28;20197;-69
2022/08/24 04:40:08;;;;;;;7.87;7.17;;;;;;;;;;5048805;28;20205;-70
2022/08/24 04:42:38;;;;;;;8.20;7.40;;;;;;;;;;5035045;28;20210;-69
2022/08/24 04:45:09;;;;;;;8.47;7.73;;;;;;;;;;5042658;28;20566;-70
2022/08/24 04:47:40;;;;;;;7.73;6.93;;;;;;;;;;5046094;28;20264;-69
2022/08/24 04:50:09;;;;;;;8.07;7.37;;;;;;;;;;5035831;28;20199;-69
2022/08/24 04:52:41;;;;;;;8.73;7.93;;;;;;;;;;5039741;28;20642;-69
2022/08/24 04:55:16;;;;;;;8.87;7.97;;;;;;;;;;5043343;28;20198;-70
2022/08/24 04:57:45;;;;;;;8.40;7.60;;;;;;;;;;5038362;28;20547;-70
2022/08/24 05:00:16;;;;;;;10.03;7.77;;;;;;;;;;5049692;28;20197;-70
2022/08/24 05:02:48;;;;;;;9.17;8.17;;;;;;;;;;5055924;28;20238;-70
2022/08/24 05:05:16;;;;;;;9.27;8.37;;;;;;;;;;5065431;28;20213;-70
2022/08/24 05:07:49;;;;;;;9.30;8.50;;;;;;;;;;5069381;28;20186;-70
2022/08/24 05:10:23;;;;;;;8.60;7.80;;;;;;;;;;5066058;28;20205;-70
2022/08/24 05:13:00;;;;;;;7.80;7.10;;;;;;;;;;5039801;28;20214;-70
2022/08/24 05:15:34;;;;;;;8.27;7.37;;;;;;;;;;5068930;28;20197;-70
2022/08/24 05:18:06;;;;;;;9.80;7.90;;;;;;;;;;5037471;28;20213;-70
2022/08/24 05:20:34;;;;;;;8.37;7.60;;;;;;;;;;5041551;28;20198;-69
2022/08/24 05:23:06;;;;;;;9.10;8.30;;;;;;;;;;5054755;28;20267;-70
2022/08/24 05:25:37;;;;;;;10.13;7.50;;;;;;;;;;5060040;28;20201;-70
2022/08/24 05:28:09;;;;;;;8.53;7.73;;;;;;;;;;5057525;28;20213;-70
2022/08/24 05:30:42;;;;;;;8.33;7.47;;;;;;;;;;5041341;28;20556;-70
2022/08/24 05:33:13;;;;;;;8.23;7.33;;;;;;;;;;5068937;28;20209;-70
2022/08/24 05:35:43;;;;;;;8.83;7.60;;;;;;;;;;5073165;28;20188;-69
2022/08/24 05:38:13;;;;;;;8.20;7.50;;;;;;;;;;5053476;28;20252;-70
2022/08/24 05:40:44;;;;;;;8.93;8.10;;;;;;;;;;5063544;28;20241;-70
2022/08/24 05:43:14;;;;;;;8.63;6.83;;;;;;;;;;5056013;28;20233;-70
2022/08/24 05:45:47;;;;;;;9.10;8.20;;;;;;;;;;5050567;28;20750;-70
2022/08/24 05:48:25;;;;;;;8.87;7.97;;;;;;;;;;5048706;28;20196;-69
2022/08/24 05:50:56;;;;;;;9.63;8.67;;;;;;;;;;5050405;28;20222;-69
2022/08/24 05:53:26;;;;;;;10.80;8.23;;;;;;;;;;5047177;28;20260;-69
2022/08/24 05:56:02;;;;;;;9.13;8.27;;;;;;;;;;5058577;28;20237;-69
2022/08/24 05:58:36;;;;;;;10.73;9.63;;;;;;;;;;5043917;28;20198;-69
2022/08/24 06:01:13;;;;;;;8.57;7.77;;;;;;;;;;5061622;28;20198;-69
2022/08/24 06:03:42;;;;;;;9.27;8.37;;;;;;;;;;5062895;28;20683;-69
2022/08/24 06:06:27;;;;;;;9.50;8.60;;;;;;;;;;5050538;28;20295;-70
2022/08/24 06:09:12;;;;;;;9.63;8.50;;;;;;;;;;5059251;28;20275;-69
2022/08/24 06:11:46;;;;;;;9.30;8.40;;;;;;;;;;5050860;28;20270;-69
2022/08/24 06:14:19;;;;;;;10.90;9.90;;;;;;;;;;5046027;28;20797;-69
2022/08/24 06:16:55;;;;;;;11.17;10.00;;;;;;;;;;5060189;28;20743;-70
2022/08/24 06:19:30;;;;;;;12.40;11.13;;;;;;;;;;5064847;28;20208;-70
2022/08/24 06:22:13;;;;;;;10.67;9.50;;;;;;;;;;5066147;28;20193;-69
2022/08/24 06:27:32;;;;;;;11.40;10.27;;;;;;;;;;5064627;28;20193;-69
2022/08/24 06:30:05;;;;;;;12.73;11.43;;;;;;;;;;5061671;28;20703;-69
2022/08/24 06:32:34;;;;;;;12.97;11.23;;;;;;;;;;5049392;28;20230;-69
2022/08/24 06:35:04;;;;;;;12.10;10.90;;;;;;;;;;5061964;28;20749;-69
2022/08/24 06:37:37;;;;;;;12.77;11.30;;;;;;;;;;5057980;28;20217;-69
2022/08/24 06:40:09;;;;;;;12.87;11.50;;;;;;;;;;5066551;28;20607;-69
2022/08/24 06:42:39;;;;;;;19.03;12.27;;;;;;;;;;5058947;28;20623;-71
2022/08/24 06:45:08;;;;;;;19.83;13.23;;;;;;;;;;5050691;28;20201;-74
2022/08/24 06:47:41;;;;;;;15.63;14.10;;;;;;;;;;5063810;28;20215;-74
2022/08/24 06:50:12;;;;;;;16.87;15.07;;;;;;;;;;5047480;28;20210;-72
2022/08/24 06:52:41;;;;;;;17.93;15.77;;;;;;;;;;5027778;28;20238;-72
2022/08/24 06:55:12;;;;;;;18.63;15.07;;;;;;;;;;5065448;28;20277;-72
2022/08/24 06:57:43;;;;;;;17.27;15.67;;;;;;;;;;5062654;28;20234;-72
2022/08/24 07:00:20;;;;;;;18.27;16.47;;;;;;;;;;5059828;28;20194;-73
2022/08/24 07:02:49;;;;;;;19.43;17.43;;;;;;;;;;5066726;28;20271;-71
2022/08/24 07:05:21;;;;;;;20.33;16.90;;;;;;;;;;5061605;28;20213;-72
2022/08/24 07:07:51;;;;;;;17.67;15.87;;;;;;;;;;5045220;28;20303;-73
2022/08/24 07:10:23;;;;;;;17.87;16.07;;;;;;;;;;5060759;28;20199;-72
2022/08/24 07:12:55;;;;;;;17.60;15.90;;;;;;;;;;5066487;28;20273;-70
2022/08/24 07:15:25;;;;;;;17.17;15.60;;;;;;;;;;5060404;28;20691;-71
2022/08/24 07:17:54;;;;;;;17.53;16.03;;;;;;;;;;5046291;28;20206;-72
2022/08/24 07:20:26;;;;;;;17.80;16.10;;;;;;;;;;5061718;28;20194;-72
2022/08/24 07:22:56;;;;;;;17.70;16.10;;;;;;;;;;5064047;28;20189;-73
2022/08/24 07:25:29;;;;;;;19.30;17.30;;;;;;;;;;5063578;28;20229;-78
2022/08/24 07:28:03;;;;;;;16.53;15.03;;;;;;;;;;5060169;28;20234;-74
2022/08/24 07:30:39;;;;;;;16.93;15.30;;;;;;;;;;5045891;28;20458;-70
2022/08/24 07:33:10;;;;;;;16.13;14.50;;;;;;;;;;5048356;28;20222;-73
2022/08/24 07:35:54;;;;;;;13.47;12.17;;;;;;;;;;5033495;28;20589;-74
2022/08/24 07:38:27;;;;;;;14.17;11.70;;;;;;;;;;5058339;28;20665;-74
2022/08/24 07:40:58;;;;;;;11.50;10.40;;;;;;;;;;5059445;28;20209;-74
2022/08/24 07:43:50;;;;;;;14.10;10.57;;;;;;;;;;5051359;28;20782;-72
2022/08/24 07:46:25;;;;;;;12.37;11.17;;;;;;;;;;5061470;28;20228;-76
2022/08/24 07:48:55;;;;;;;12.80;10.83;;;;;;;;;;5065557;28;20190;-76
2022/08/24 07:51:39;;;;;;;13.40;10.50;;;;;;;;;;5065434;28;20197;-76
2022/08/24 07:54:13;;;;;;;12.13;10.90;;;;;;;;;;5052654;28;20597;-69
2022/08/24 07:56:44;;;;;;;14.23;11.23;;;;;;;;;;5062661;28;20190;-68
2022/08/24 07:59:14;;;;;;;14.67;12.00;;;;;;;;;;5064538;28;20274;-68
2022/08/24 08:01:46;;;;;;;11.73;8.97;;;;;;;;;;5055141;28;20647;-68
2022/08/24 08:04:20;;;;;;;10.27;9.10;;;;;;;;;;5054122;28;20181;-67
2022/08/24 08:07:06;;;;;;;7.87;7.00;;;;;;;;;;5055565;28;20628;-68
2022/08/24 08:09:37;;;;;;;11.13;5.80;;;;;;;;;;5067893;28;20690;-67
2022/08/24 08:12:07;;;;;;;7.53;6.13;;;;;;;;;;5059155;28;20229;-63
2022/08/24 08:14:41;;;;;;;6.10;5.50;;;;;;;;;;5069992;28;20197;-63
2022/08/24 08:17:23;;;;;;;11.03;5.77;;;;;;;;;;5053997;28;20212;-63
2022/08/24 08:19:55;;;;;;;6.23;4.93;;;;;;;;;;5068281;28;20194;-65
2022/08/24 08:25:13;;;;;;;5.07;4.40;;;;;;;;;;5069902;28;20190;-65
2022/08/24 08:27:46;;;;;;;5.57;3.87;;;;;;;;;;5069986;28;20191;-67
2022/08/24 08:30:29;;;;;;;4.43;3.73;;;;;;;;;;5055623;28;20309;-66
2022/08/24 08:33:15;;;;;;;5.67;3.83;;;;;;;;;;5069105;28;20283;-67
2022/08/24 08:35:47;;;;;;;5.50;3.30;;;;;;;;;;5044756;28;20237;-66
2022/08/24 08:38:18;;;;;;;4.00;3.50;;;;;;;;;;5052713;28;20287;-65
2022/08/24 08:41:06;;;;;;;4.80;3.03;;;;;;;;;;5062673;28;20211;-67
2022/08/24 08:43:54;;;;;;;4.80;3.30;;;;;;;;;;5065674;28;20197;-67
2022/08/24 08:46:43;;;;;;;3.33;3.03;;;;;;;;;;5067549;28;20217;-68
2022/08/24 08:49:26;;;;;;;3.80;2.90;;;;;;;;;;5064774;28;20263;-67
2022/08/24 08:52:25;;;;;;;4.00;3.07;;;;;;;;;;5060184;28;20202;-67
2022/08/24 08:55:09;;;;;;;3.27;2.70;;;;;;;;;;5055618;28;20208;-67
2022/08/24 08:58:11;;;;;;;3.23;3.03;;;;;;;;;;5052267;28;20195;-65
2022/08/24 09:01:05;;;;;;;3.20;2.90;;;;;;;;;;5048455;28;20236;-65
2022/08/24 09:03:54;;;;;;;3.37;3.00;;;;;;;;;;5061100;28;20275;-67
2022/08/24 09:06:34;;;;;;;3.00;2.70;;;;;;;;;;5034082;28;20271;-63
2022/08/24 09:09:25;;;;;;;3.40;2.60;;;;;;;;;;5057940;28;20622;-69
2022/08/24 09:12:15;;;;;;;3.07;2.30;;;;;;;;;;5070501;28;20711;-68
2022/08/24 09:15:04;;;;;;;4.13;2.63;;;;;;;;;;5060613;28;20196;-65
2022/08/24 09:18:07;;;;;;;3.13;2.60;;;;;;;;;;5055267;28;20707;-64
2022/08/24 09:20:41;;;;;;;2.90;2.23;;;;;;;;;;5016900;28;20252;-63
2022/08/24 09:23:24;;;;;;;2.97;2.70;;;;;;;;;;5062228;28;20286;-64
2022/08/24 09:26:10;;;;;;;2.60;2.40;;;;;;;;;;5067680;28;20190;-66
2022/08/24 09:29:12;;;;;;;3.67;2.37;;;;;;;;;;5062542;28;20240;-66
2022/08/24 09:31:59;;;;;;;2.50;2.30;;;;;;;;;;5050693;28;20620;-64
2022/08/24 09:34:44;;;;;;;2.80;2.27;;;;;;;;;;5056695;28;20214;-63
2022/08/24 09:37:41;;;;;;;2.00;1.73;;;;;;;;;;5064458;28;20190;-65
2022/08/24 09:40:34;;;;;;;2.57;1.90;;;;;;;;;;5066825;28;20688;-66
2022/08/24 09:43:32;;;;;;;2.37;1.43;;;;;;;;;;5072458;28;20209;-67
2022/08/24 09:46:25;;;;;;;1.90;1.80;;;;;;;;;;5067417;28;20668;-67
2022/08/24 09:49:04;;;;;;;2.77;2.10;;;;;;;;;;5041604;28;20282;-67
2022/08/24 09:51:54;;;;;;;1.80;1.70;;;;;;;;;;5059927;28;20203;-66
2022/08/24 09:54:50;;;;;;;3.00;1.90;;;;;;;;;;5054114;28;20246;-68
2022/08/24 09:57:45;;;;;;;3.63;1.80;;;;;;;;;;5061416;28;20201;-64
2022/08/24 10:00:30;;;;;;;2.03;1.70;;;;;;;;;;5057325;28;20287;-66
2022/08/24 10:03:01;;;;;;;1.73;1.63;;;;;;;;;;5052849;28;20230;-65
2022/08/24 10:05:47;;;;;;;2.03;1.80;;;;;;;;;;5051786;28;20224;-64
2022/08/24 10:08:57;;;;;;;2.63;1.93;;;;;;;;;;5062793;28;20198;-64
2022/08/24 10:11:45;;;;;;;1.87;1.67;;;;;;;;;;5007378;28;20208;-62
2022/08/24 10:14:23;;;;;;;2.13;1.73;;;;;;;;;;5005158;28;20224;-61
2022/08/24 10:17:05;;;;;;;1.70;1.60;;;;;;;;;;5003037;28;20216;-64
2022/08/24 10:19:55;;;;;;;2.13;1.77;;;;;;;;;;5010436;28;20195;-65
2022/08/24 10:22:32;;;;;;;3.33;2.03;;;;;;;;;;5011117;28;20207;-62
2022/08/24 10:25:10;;;;;;;2.00;1.60;;;;;;;;;;5006126;28;20215;-61
2022/08/24 10:27:59;;;;;;;1.53;1.43;;;;;;;;;;5001971;28;20641;-61
2022/08/24 10:30:46;;;;;;;1.80;1.57;;;;;;;;;;5001184;28;20207;-64
2022/08/24 10:33:33;;;;;;;2.20;2.00;;;;;;;;;;5009103;28;20211;-64
2022/08/24 10:36:09;;;;;;;1.60;1.50;;;;;;;;;;5010478;28;20319;-61
2022/08/24 10:42:06;;;;;;;1.67;1.57;;;;;;;;;;5020540;28;20240;-62
2022/08/24 10:44:48;;;;;;;1.83;1.63;;;;;;;;;;5061165;28;20724;-62
2022/08/24 10:47:33;;;;;;;2.00;1.80;;;;;;;;;;5064305;28;20923;-65
2022/08/24 10:50:24;;;;;;;1.63;1.27;;;;;;;;;;5065581;28;20196;-64
2022/08/24 10:53:17;;;;;;;2.40;1.30;;;;;;;;;;5065977;28;20736;-65
2022/08/24 10:55:59;;;;;;;1.60;1.50;;;;;;;;;;5061787;28;20196;-64
2022/08/24 10:58:42;;;;;;;3.93;1.33;;;;;;;;;;5039277;28;20205;-66
2022/08/24 11:01:36;;;;;;;1.40;1.30;;;;;;;;;;5065796;28;20197;-63
2022/08/24 11:04:12;;;;;;;1.30;1.20;;;;;;;;;;5065971;28;20230;-64
2022/08/24 11:06:42;;;;;;;1.77;1.30;;;;;;;;;;5061495;28;20229;-67
2022/08/24 11:09:14;;;;;;;1.50;1.40;;;;;;;;;;5066354;28;20189;-67
2022/08/24 11:11:48;;;;;;;1.43;1.17;;;;;;;;;;5049019;28;20196;-65
2022/08/24 11:14:21;;;;;;;1.43;1.23;;;;;;;;;;5065384;28;20221;-65
2022/08/24 11:16:52;;;;;;;1.47;1.30;;;;;;;;;;5061168;28;20213;-67
2022/08/24 11:19:27;;;;;;;1.73;1.27;;;;;;;;;;5058433;28;20186;-68
2022/08/24 11:22:01;;;;;;;1.70;1.40;;;;;;;;;;5062374;28;20205;-66
2022/08/24 11:24:46;;;;;;;2.27;1.30;;;;;;;;;;5058803;28;20289;-65
2022/08/24 11:27:39;;;;;;;1.40;1.30;;;;;;;;;;5059050;28;20276;-61
2022/08/24 11:30:11;;;;;;;1.50;1.40;;;;;;;;;;5058612;28;20206;-63
2022/08/24 11:32:48;;;;;;;2.50;1.30;;;;;;;;;;5062712;28;20210;-62
2022/08/24 11:35:24;;;;;;;3.23;1.40;;;;;;;;;;5071929;28;20189;-62
2022/08/24 11:38:13;;;;;;;2.97;1.23;;;;;;;;;;5054622;28;20198;-63
2022/08/24 11:40:51;;;;;;;1.60;1.13;;;;;;;;;;5055116;28;20225;-62
2022/08/24 11:43:32;;;;;;;1.60;1.50;;;;;;;;;;5035202;28;20197;-62
2022/08/24 11:46:18;;;;;;;2.43;1.17;;;;;;;;;;5066322;28;20201;-61
2022/08/24 11:48:56;;;;;;;1.93;1.20;;;;;;;;;;5048530;28;20210;-61
2022/08/24 11:51:44;;;;;;;2.47;1.60;;;;;;;;;;5060122;28;20204;-63
2022/08/24 11:54:23;;;;;;;2.27;1.20;;;;;;;;;;5063513;28;20233;-65
2022/08/24 11:57:14;;;;;;;2.03;1.40;;;;;;;;;;5066206;28;20190;-63
2022/08/24 12:00:17;;;;;;;1.90;1.40;;;;;;;;;;5061247;28;20220;-63
2022/08/24 12:03:08;;;;;;;2.30;1.63;;;;;;;;;;5062733;28;20670;-64
2022/08/24 12:06:07;;;;;;;1.47;1.30;;;;;;;;;;5055587;28;20288;-61
2022/08/24 12:08:44;;;;;;;1.20;1.10;;;;;;;;;;5050732;28;20214;-62
2022/08/24 12:11:22;;;;;;;1.67;1.33;;;;;;;;;;5060256;28;20276;-61
2022/08/24 12:14:04;;;;;;;1.80;1.50;;;;;;;;;;5050534;28;20248;-62
2022/08/24 12:16:39;;;;;;;1.43;1.33;;;;;;;;;;5038837;28;20243;-63
2022/08/24 12:19:15;;;;;;;3.20;1.60;;;;;;;;;;5063563;28;20201;-65
2022/08/24 12:21:52;;;;;;;2.07;1.33;;;;;;;;;;5042278;28;20263;-62
2022/08/24 12:24:28;;;;;;;2.03;1.37;;;;;;;;;;5055985;28;20228;-63
2022/08/24 12:27:21;;;;;;;1.57;1.40;;;;;;;;;;5019117;28;20202;-65
2022/08/24 12:30:14;;;;;;;1.87;1.23;;;;;;;;;;5057159;28;20222;-65
2022/08/24 12:32:47;;;;;;;2.87;1.23;;;;;;;;;;5060470;28;20209;-65
2022/08/24 12:35:24;;;;;;;3.53;1.67;;;;;;;;;;5050023;28;20202;-64
2022/08/24 12:38:12;;;;;;;1.67;1.40;;;;;;;;;;5060261;28;20225;-65
2022/08/24 12:40:58;;;;;;;2.67;1.57;;;;;;;;;;5058620;28;20233;-65
2022/08/24 12:44:02;;;;;;;1.20;1.10;;;;;;;;;;5064029;28;20221;-64
2022/08/24 12:46:30;;;;;;;2.97;1.48;;;;;;;;;;5027675;28;20844;-65
2022/08/24 12:49:16;;;;;;;2.27;1.50;;;;;;;;;;5058740;28;20193;-65
2022/08/24 12:52:06;;;;;;;1.67;1.40;;;;;;;;;;5061503;28;20213;-65
2022/08/24 12:54:58;;;;;;;1.37;1.17;;;;;;;;;;5057048;28;20246;-65
2022/08/24 12:57:49;;;;;;;2.43;1.50;;;;;;;;;;5051202;28;20209;-62
2022/08/24 13:00:49;;;;;;;1.67;1.37;;;;;;;;;;5061417;28;20209;-63
2022/08/24 13:03:26;;;;;;;3.50;1.60;;;;;;;;;;5054826;28;20746;-62
2022/08/24 13:05:58;;;;;;;2.00;1.40;;;;;;;;;;5035592;28;20223;-63
2022/08/24 13:08:55;;;;;;;1.80;1.60;;;;;;;;;;5025157;28;20199;-63
2022/08/24 13:11:33;;;;;;;1.43;1.30;;;;;;;;;;5027909;28;20825;-65
2022/08/24 13:14:02;;;;;;;1.63;1.33;;;;;;;;;;5046563;28;20288;-66
2022/08/24 13:16:47;;;;;;;1.70;1.30;;;;;;;;;;5035253;28;20244;-62
2022/08/24 13:19:30;;;;;;;1.77;1.30;;;;;;;;;;5043014;28;20186;-63
2022/08/24 13:22:14;;;;;;;1.60;1.50;;;;;;;;;;5039505;28;20194;-63
2022/08/24 13:24:47;;;;;;;1.77;1.33;;;;;;;;;;5038685;28;20198;-63
2022/08/24 13:27:20;;;;;;;2.00;1.30;;;;;;;;;;5019225;28;20213;-62
2022/08/24 13:30:06;;;;;;;3.30;1.50;;;;;;;;;;5040031;28;20210;-62
2022/08/24 13:32:44;;;;;;;1.40;1.10;;;;;;;;;;5043265;28;20268;-66
2022/08/24 13:35:36;;;;;;;3.50;1.50;;;;;;;;;;5029848;28;20282;-64
2022/08/24 13:38:27;;;;;;;2.60;1.47;;;;;;;;;;5034316;28;20202;-64
2022/08/24 13:41:08;;;;;;;1.83;1.27;;;;;;;;;;5034345;28;20225;-63
2022/08/24 13:43:43;;;;;;;1.10;1.10;;;;;;;;;;5046823;28;20669;-63
2022/08/24 13:46:21;;;;;;;1.77;1.40;;;;;;;;;;5030954;28;20208;-65
2022/08/24 13:49:18;;;;;;;1.20;1.10;;;;;;;;;;5040748;28;20202;-68
2022/08/24 13:52:22;;;;;;;1.23;1.13;;;;;;;;;;5027689;28;20195;-63
2022/08/24 13:55:09;;;;;;;1.90;1.33;;;;;;;;;;5034396;28;20229;-64
2022/08/24 13:57:49;;;;;;;2.50;1.30;;;;;;;;;;5032215;28;20784;-64
2022/08/24 14:00:31;;;;;;;2.03;1.37;;;;;;;;;;5036787;28;20202;-66
2022/08/24 14:03:04;;;;;;;1.57;1.43;;;;;;;;;;5047819;28;20234;-66
2022/08/24 14:05:57;;;;;;;1.97;1.30;;;;;;;;;;5044733;28;20203;-63
2022/08/24 14:08:46;;;;;;;1.30;1.20;;;;;;;;;;5018903;28;20246;-63
2022/08/24 14:11:38;;;;;;;1.30;1.13;;;;;;;;;;5061780;28;20263;-63
2022/08/24 14:14:50;;;;;;;1.20;1.10;;;;;;;;;;5058970;28;20234;-63
2022/08/24 14:20:49;;;;;;;1.73;1.23;;;;;;;;;;5061832;28;20230;-64
2022/08/24 14:23:29;;;;;;;1.50;1.40;;;;;;;;;;5053606;28;20237;-63
2022/08/24 14:26:20;;;;;;;1.37;1.20;;;;;;;;;;5044768;28;20247;-62
2022/08/24 14:28:52;;;;;;;2.30;1.50;;;;;;;;;;5041018;28;20393;-64
2022/08/24 14:31:28;;;;;;;3.47;1.33;;;;;;;;;;5060698;28;20204;-64
2022/08/24 14:34:02;;;;;;;1.50;1.27;;;;;;;;;;5059216;28;20229;-63
2022/08/24 14:36:51;;;;;;;1.27;1.10;;;;;;;;;;5053892;28;20186;-63
2022/08/24 14:39:35;;;;;;;1.50;1.20;;;;;;;;;;5056726;28;20193;-63
2022/08/24 14:42:28;;;;;;;1.47;1.27;;;;;;;;;;5058442;28;20202;-64
2022/08/24 14:45:10;;;;;;;1.43;1.10;;;;;;;;;;5058043;28;20264;-64
2022/08/24 14:48:00;;;;;;;1.37;1.20;;;;;;;;;;5057822;28;20263;-64
2022/08/24 14:50:54;;;;;;;1.60;1.47;;;;;;;;;;5059408;28;20676;-65
2022/08/24 14:53:51;;;;;;;1.37;1.27;;;;;;;;;;5058291;28;20258;-64
2022/08/24 14:56:40;;;;;;;1.90;1.17;;;;;;;;;;5061628;28;20213;-64
2022/08/24 14:59:16;;;;;;;1.50;1.40;;;;;;;;;;5058937;28;20183;-63
2022/08/24 15:01:49;;;;;;;1.30;1.20;;;;;;;;;;5063846;28;20201;-65
2022/08/24 15:04:41;;;;;;;2.40;1.30;;;;;;;;;;5055529;28;20240;-65
2022/08/24 15:07:30;;;;;;;1.10;1.00;;;;;;;;;;5060820;28;20224;-67
2022/08/24 15:10:04;;;;;;;1.57;1.47;;;;;;;;;;5064933;28;20217;-66
2022/08/24 15:12:36;;;;;;;2.13;1.40;;;;;;;;;;5029641;28;20602;-66
2022/08/24 15:15:09;;;;;;;1.40;1.30;;;;;;;;;;5061043;28;20551;-62
2022/08/24 15:18:00;;;;;;;1.60;1.30;;;;;;;;;;5046538;28;20224;-63
2022/08/24 15:20:38;;;;;;;2.17;1.60;;;;;;;;;;5059339;28;20188;-63
2022/08/24 15:23:14;;;;;;;1.40;1.30;;;;;;;;;;5045271;28;20205;-64
2022/08/24 15:25:49;;;;;;;1.37;1.27;;;;;;;;;;5063006;28;20186;-66
2022/08/24 15:28:27;;;;;;;1.53;1.20;;;;;;;;;;5057373;28;20274;-66
2022/08/24 15:30:59;;;;;;;1.57;1.17;;;;;;;;;;5050675;28;20200;-67
2022/08/24 15:33:30;;;;;;;1.43;1.30;;;;;;;;;;5045561;28;20194;-66
2022/08/24 15:36:14;;;;;;;1.43;1.33;;;;;;;;;;5048609;28;20541;-63
2022/08/24 15:38:43;;;;;;;1.30;1.20;;;;;;;;;;5062613;28;20220;-63
2022/08/24 15:41:13;;;;;;;1.50;1.30;;;;;;;;;;5059263;28;20236;-65
2022/08/24 15:43:52;;;;;;;1.70;1.40;;;;;;;;;;5048350;28;20186;-66
2022/08/24 15:46:21;;;;;;;1.93;1.30;;;;;;;;;;5059542;28;20213;-63
2022/08/24 15:49:01;;;;;;;1.60;1.40;;;;;;;;;;5066402;28;20201;-63
2022/08/24 15:51:43;;;;;;;1.83;1.30;;;;;;;;;;5058767;28;20194;-63
2022/08/24 15:54:32;;;;;;;2.87;1.50;;;;;;;;;;5059588;28;20232;-63
2022/08/24 15:57:25;;;;;;;2.97;1.63;;;;;;;;;;5066848;28;20797;-66
2022/08/24 16:00:07;;;;;;;2.03;1.57;;;;;;;;;;5051544;28;20280;-65
2022/08/24 16:02:37;;;;;;;1.83;1.50;;;;;;;;;;5046472;28;20186;-66